Lauritzen Yacht Harbor
Updated WEATHER every hour; Delta WATER and tide conditions; live TOWER CAM;
The FISHING report with PHOTOGRAPHS; harbor NEWS Items; before you get UNDERWAY ;
OTHER points of interest; WHO are we? WHAT can we provide? WHERE are we?

CRITICAL NEWS REGARING FRANKS TRACK AND LITTLE FRANKS TRACK

24 Hour Weather Archive

                   Temp   Wind   Hum   Dew   Wind                            
   Date    Time    Out   Chill   Out   Pt.  Speed    Hi    Dir   Rain   Bar  
 3/11/19  12:00a   46.2   46.2    --     --   2.0    4.0     W   0.00  30.134
 3/11/19  12:30a   46.0   46.0    --     --   2.0    4.0     W   0.00  30.128
 3/11/19   1:00a   45.5   45.5    --     --   1.0    3.0     W   0.00  30.130
 3/11/19   1:30a   45.7   45.7    --     --   2.0    4.0     W   0.00  30.132
 3/11/19   2:00a   45.8   45.8    --     --   3.0    6.0   WNW   0.00  30.132
 3/11/19   2:30a   45.7   45.7    --     --   2.0    4.0    NW   0.00  30.131
 3/11/19   3:00a   45.7   45.7    --     --   3.0    6.0   WNW   0.00  30.130
 3/11/19   3:30a   45.6   45.6    --     --   3.0    5.0    NW   0.00  30.125
 3/11/19   4:00a   45.3   45.3    --     --   2.0    4.0   WNW   0.00  30.133
 3/11/19   4:30a   45.5   45.5    --     --   2.0    5.0   WNW   0.00  30.142
 3/11/19   5:00a   45.2   45.2    --     --   1.0    3.0    NW   0.00  30.148
 3/11/19   5:30a   43.9   43.9    --     --   0.0    2.0    NW   0.00  30.156
 3/11/19   6:00a   43.4   43.4    --     --   0.0    2.0    NW   0.00  30.164
 3/11/19   6:30a   42.7   42.7    --     --   0.0    2.0    NW   0.00  30.174
 3/11/19   7:00a   44.7   44.7    --     --   2.0    4.0    NW   0.00  30.174
 3/11/19   7:30a   47.5   47.5    --     --   3.0    8.0   WNW   0.00  30.182
 3/11/19   8:00a   49.9   49.9    --     --   3.0    7.0    NW   0.00  30.186
 3/11/19   8:30a   52.0   52.0    --     --   4.0    9.0    NW   0.00  30.192
 3/11/19   9:00a   53.8   53.8    --     --   4.0   10.0   NNW   0.00  30.194
 3/11/19   9:30a   54.3   52.3    --     --   5.0   12.0   NNW   0.00  30.199
 3/11/19  10:00a   56.9   55.0    --     --   5.0   11.0   NNW   0.00  30.200
 3/11/19  10:30a   58.9   54.7    --     --   7.0   15.0   NNW   0.00  30.199
 3/11/19  11:00a   60.1   54.9    --     --   8.0   16.0   NNW   0.00  30.195
 3/11/19  11:30a   61.5   56.5    --     --   8.0   17.0   NNW   0.00  30.190
 3/11/19  12:00p   63.4   59.8    --     --   7.0   16.0   NNW   0.00  30.180
 3/11/19  12:30p   64.4   60.9    --     --   7.0   16.0   NNW   0.00  30.173
 3/11/19   1:00p   65.2   60.9    --     --   8.0   17.0   NNW   0.00  30.156
 3/11/19   1:30p   66.0   61.8    --     --   8.0   17.0   NNW   0.00  30.138
 3/11/19   2:00p   66.6   62.5    --     --   8.0   15.0   NNW   0.00  30.125
 3/11/19   2:30p   67.0   63.9    --     --   7.0   16.0   NNW   0.00  30.116
 3/11/19   3:00p   67.2   64.1    --     --   7.0   15.0   NNW   0.00  30.100
 3/11/19   3:30p   67.6   65.4    --     --   6.0   15.0   NNW   0.00  30.090
 3/11/19   4:00p   67.6   66.3    --     --   5.0   10.0   NNW   0.00  30.081
 3/11/19   4:30p   68.2   66.1    --     --   6.0   13.0   NNW   0.00  30.076
 3/11/19   5:00p   68.2   66.9    --     --   5.0    9.0   WNW   0.00  30.073
 3/11/19   5:30p   67.8   67.8    --     --   4.0   10.0   WNW   0.00  30.070
 3/11/19   6:00p   64.1   64.1    --     --   4.0    8.0   WNW   0.00  30.061
 3/11/19   6:30p   58.8   57.0    --     --   5.0   13.0   WNW   0.00  30.066
 3/11/19   7:00p   56.2   54.3    --     --   5.0   11.0   WNW   0.00  30.064
 3/11/19   7:30p   54.3   52.3    --     --   5.0    9.0    NW   0.00  30.062
 3/11/19   8:00p   53.1   53.1    --     --   4.0    8.0   WNW   0.00  30.058
 3/11/19   8:30p   52.9   50.8    --     --   5.0   10.0   WNW   0.00  30.064
 3/11/19   9:00p   52.4   52.4    --     --   4.0    9.0   WNW   0.00  30.061
 3/11/19   9:30p   51.4   51.4    --     --   0.0    4.0     W   0.00  30.054
 3/11/19  10:00p   51.4   51.4    --     --   1.0    4.0     W   0.00  30.043
 3/11/19  10:30p   50.8   50.8    --     --   2.0    7.0   WSW   0.00  30.033
 3/11/19  11:00p   50.4   50.4    --     --   2.0    7.0     W   0.00  30.026
 3/11/19  11:30p   51.0   47.3    --     --   6.0   11.0    NW   0.00  30.014
 3/11/19  12:00p   51.8   48.2    --     --   6.0   14.0   WNW   0.00  30.004
 3/12/19  12:00a   51.8   48.2    --     --   6.0   14.0   WNW   0.00  30.004
 3/12/19  12:30a   53.4   47.1    --     --   8.0   15.0   WNW   0.00  30.000
 3/12/19   1:00a   52.7   49.1    --     --   6.0   12.0   WNW   0.00  29.998
 3/12/19   1:30a   53.5   48.6    --     --   7.0   13.0     W   0.00  29.997
 3/12/19   2:00a   53.8   51.7    --     --   5.0   11.0   WSW   0.00  29.995
 3/12/19   2:30a   53.5   50.0    --     --   6.0   12.0     W   0.00  29.985
 3/12/19   3:00a   53.2   49.7    --     --   6.0   13.0     W   0.00  29.980
 3/12/19   3:30a   51.5   49.3    --     --   5.0   11.0   WNW   0.00  29.978
 3/12/19   4:00a   51.1   47.4    --     --   6.0   15.0    NW   0.00  29.982
 3/12/19   4:30a   51.3   51.3    --     --   3.0    9.0   WSW   0.00  29.975
 3/12/19   5:00a   50.9   48.7    --     --   5.0   13.0    NW   0.00  29.981
 3/12/19   5:30a   51.3   46.1    --     --   7.0   16.0    NW   0.00  29.980
 3/12/19   6:00a   51.2   47.5    --     --   6.0   15.0   WSW   0.00  29.981


Send questions or comments to:
Some of the material in this website is copyrighted © by Lauritzen Yacht Harbor and may not be used by others without our specific permission.
All rights are reserved. iPhone friendly. Viewed best with Mozilla Firefox